CDT,Max TemperatureF,Mean TemperatureF,Min TemperatureF,Max Dew PointF,MeanDew PointF,Min DewpointF,Max Humidity, Mean Humidity, Min Humidity, Max Sea Level PressureIn, Mean Sea Level PressureIn, Min Sea Level PressureIn, Max VisibilityMiles, Mean VisibilityMiles, Min VisibilityMiles, Max Wind SpeedMPH, Mean Wind SpeedMPH, Max Gust SpeedMPH,PrecipitationIn, CloudCover, Events, WindDirDegrees
2012-7-1,95,86,76,76,73,71,94,72,49,30.06,30.02,29.96,10,10,10,15,4,16,0.00,1,,244
2012-7-2,96,86,75,74,72,67,88,69,49,30.13,30.06,30.02,10,10,10,21,3,31,0.01,1,Rain-Thunderstorm,288
2012-7-3,96,86,75,73,71,68,94,68,42,30.08,30.03,29.95,10,10,6,18,4,26,0.00,0,,271
2012-7-4,95,85,75,79,73,70,88,69,49,30.08,30.02,29.98,10,9,2,23,5,39,0.35,2,Rain-Thunderstorm,263
2012-7-5,96,85,73,75,72,69,94,69,43,30.09,30.02,29.96,10,8,4,14,4,23,0.00,1,,245
2012-7-6,93,84,74,75,73,70,94,73,52,30.04,30.02,29.99,10,8,0,25,5,32,1.06,2,Fog-Rain,260
2012-7-7,92,83,73,74,72,70,100,76,52,30.06,30.02,29.97,10,6,1,25,2,32,T,3,Rain-Thunderstorm,155
2012-7-8,87,80,73,75,73,71,100,85,70,30.09,30.05,29.99,10,7,0,15,2,23,1.08,4,Fog-Rain,177
2012-7-9,88,81,74,74,72,69,100,78,55,30.04,29.99,29.94,10,9,6,18,6,22,T,1,Rain,213
2012-7-10,85,79,73,74,72,70,100,83,65,30.01,29.96,29.91,10,8,2,23,7,38,0.78,6,Rain,211
2012-7-11,86,80,73,76,73,70,94,80,65,30.03,29.98,29.94,10,9,2,29,6,37,0.16,5,Rain,205
2012-7-12,90,82,73,76,72,64,94,77,59,30.03,29.99,29.95,10,8,1,28,6,47,0.97,4,Rain-Thunderstorm,129
2012-7-13,88,80,72,73,71,67,93,73,53,30.04,30.01,29.97,10,10,2,23,4,30,0.07,4,Rain,122
2012-7-14,92,82,71,75,72,69,100,78,56,30.05,30.00,29.95,10,10,10,14,3,26,0.01,2,Rain,86
2012-7-15,87,81,75,77,75,73,94,82,70,30.07,30.04,29.99,10,8,1,22,2,76,0.74,3,Rain-Thunderstorm,76
2012-7-16,92,83,74,77,74,71,100,78,56,30.07,30.03,29.97,10,8,2,18,3,22,T,3,Rain-Thunderstorm,122
2012-7-17,94,84,74,76,73,71,100,75,49,30.04,29.99,29.91,10,10,10,8,1,15,0.00,2,,274
2012-7-18,94,85,76,77,74,72,94,73,52,30.07,30.03,29.96,10,10,10,16,5,21,T,3,Rain-Thunderstorm,235
2012-7-19,94,85,75,77,74,72,94,73,52,30.13,30.08,30.03,10,10,2,23,5,28,0.11,4,Rain,249
2012-7-20,92,82,72,77,73,70,94,77,60,30.09,30.03,29.97,10,9,0,25,6,32,1.01,4,Fog-Rain-Thunderstorm,221
2012-7-21,84,79,73,75,73,71,94,82,69,30.06,30.00,29.96,10,10,7,14,4,29,0.01,5,Rain,144
2012-7-22,90,82,74,76,74,72,100,78,56,30.12,30.05,30.01,10,9,6,16,6,21,0.00,4,,124
2012-7-23,93,84,75,77,74,70,94,72,49,30.16,30.12,30.09,10,10,9,16,3,23,0.00,2,Thunderstorm,92
2012-7-24,95,85,74,76,74,71,94,72,49,30.14,30.08,30.00,10,10,8,14,2,33,T,2,,209
2012-7-25,94,86,77,77,75,72,94,72,49,30.05,30.01,29.96,10,10,8,18,5,32,0.04,2,Rain-Thunderstorm,232
2012-7-26,92,85,77,77,75,73,91,76,60,30.03,29.99,29.94,10,10,6,25,6,30,0.14,2,Rain,231
2012-7-27,91,84,77,79,76,73,97,80,63,30.07,30.03,30.00,10,10,10,22,6,25,0.00,2,Thunderstorm,232
2012-7-28,92,85,78,79,77,74,91,78,64,30.12,30.06,30.01,10,9,2,13,6,33,0.06,4,Rain,259
2012-7-29,97,87,76,79,75,72,94,72,49,30.06,30.01,29.95,10,10,10,10,4,23,0.00,0,,238
2012-7-30,96,88,79,79,77,75,97,74,51,30.04,29.99,29.93,10,9,6,14,7,16,0.00,1,,252
2012-7-31,94,86,78,78,75,73,91,72,52,30.03,29.98,29.94,10,10,10,14,7,28,0.00,2,,255